sensor_id;sensor_type;location;lat;lon;timestamp;temperature;humidity
11963;DHT22;62678;52.130;5.584;2023-05-16T00:01:15;9.80;99.90
11963;DHT22;62678;52.130;5.584;2023-05-16T00:03:42;9.80;99.90
11963;DHT22;62678;52.130;5.584;2023-05-16T00:06:10;9.70;99.90
11963;DHT22;62678;52.130;5.584;2023-05-16T00:08:36;9.70;99.90
11963;DHT22;62678;52.130;5.584;2023-05-16T00:11:05;9.70;99.90
11963;DHT22;62678;52.130;5.584;2023-05-16T00:13:32;9.60;99.90
11963;DHT22;62678;52.130;5.584;2023-05-16T00:15:59;9.70;99.90
11963;DHT22;62678;52.130;5.584;2023-05-16T00:18:27;9.60;99.90
11963;DHT22;62678;52.130;5.584;2023-05-16T00:20:54;9.60;99.90
11963;DHT22;62678;52.130;5.584;2023-05-16T00:23:21;9.70;99.90
11963;DHT22;62678;52.130;5.584;2023-05-16T00:25:48;9.60;99.90
11963;DHT22;62678;52.130;5.584;2023-05-16T00:28:16;9.60;99.90
11963;DHT22;62678;52.130;5.584;2023-05-16T00:30:44;9.60;99.90
11963;DHT22;62678;52.130;5.584;2023-05-16T00:33:11;9.50;99.90
11963;DHT22;62678;52.130;5.584;2023-05-16T00:35:40;9.40;99.90
11963;DHT22;62678;52.130;5.584;2023-05-16T00:38:07;9.40;99.90
11963;DHT22;62678;52.130;5.584;2023-05-16T00:40:34;9.40;99.90
11963;DHT22;62678;52.130;5.584;2023-05-16T00:43:01;9.40;99.90
11963;DHT22;62678;52.130;5.584;2023-05-16T00:45:29;9.40;99.90
11963;DHT22;62678;52.130;5.584;2023-05-16T00:47:56;9.30;99.90
11963;DHT22;62678;52.130;5.584;2023-05-16T00:50:23;9.30;99.90
11963;DHT22;62678;52.130;5.584;2023-05-16T00:52:49;9.30;99.90
11963;DHT22;62678;52.130;5.584;2023-05-16T00:55:16;9.20;99.90
11963;DHT22;62678;52.130;5.584;2023-05-16T00:57:43;9.20;99.90
11963;DHT22;62678;52.130;5.584;2023-05-16T01:00:11;9.10;99.90
11963;DHT22;62678;52.130;5.584;2023-05-16T01:02:41;9.10;99.90
11963;DHT22;62678;52.130;5.584;2023-05-16T01:05:08;9.10;99.90
11963;DHT22;62678;52.130;5.584;2023-05-16T01:07:35;9.10;99.90
11963;DHT22;62678;52.130;5.584;2023-05-16T01:10:03;9.20;99.90
11963;DHT22;62678;52.130;5.584;2023-05-16T01:12:36;9.20;99.90
11963;DHT22;62678;52.130;5.584;2023-05-16T01:15:08;9.20;99.90
11963;DHT22;62678;52.130;5.584;2023-05-16T01:17:46;9.20;99.90
11963;DHT22;62678;52.130;5.584;2023-05-16T01:20:24;9.20;99.90
11963;DHT22;62678;52.130;5.584;2023-05-16T01:23:04;9.20;99.90
11963;DHT22;62678;52.130;5.584;2023-05-16T01:25:45;9.30;99.90
11963;DHT22;62678;52.130;5.584;2023-05-16T01:28:18;9.40;99.90
11963;DHT22;62678;52.130;5.584;2023-05-16T01:30:45;9.40;99.90
11963;DHT22;62678;52.130;5.584;2023-05-16T01:33:12;9.40;99.90
11963;DHT22;62678;52.130;5.584;2023-05-16T01:35:42;9.50;99.90
11963;DHT22;62678;52.130;5.584;2023-05-16T01:38:17;9.50;99.90
11963;DHT22;62678;52.130;5.584;2023-05-16T01:40:52;9.50;99.90
11963;DHT22;62678;52.130;5.584;2023-05-16T01:43:29;9.40;99.90
11963;DHT22;62678;52.130;5.584;2023-05-16T01:46:02;9.30;99.90
11963;DHT22;62678;52.130;5.584;2023-05-16T01:48:36;9.20;99.90
11963;DHT22;62678;52.130;5.584;2023-05-16T01:51:05;9.10;99.90
11963;DHT22;62678;52.130;5.584;2023-05-16T01:53:36;9.10;99.90
11963;DHT22;62678;52.130;5.584;2023-05-16T01:56:05;9.10;99.90
11963;DHT22;62678;52.130;5.584;2023-05-16T01:58:36;9.10;99.90
11963;DHT22;62678;52.130;5.584;2023-05-16T02:01:04;9.10;99.90
11963;DHT22;62678;52.130;5.584;2023-05-16T02:03:31;9.10;99.90
11963;DHT22;62678;52.130;5.584;2023-05-16T02:05:59;9.10;99.90
11963;DHT22;62678;52.130;5.584;2023-05-16T02:08:27;9.20;99.90
11963;DHT22;62678;52.130;5.584;2023-05-16T02:10:53;9.20;99.90
11963;DHT22;62678;52.130;5.584;2023-05-16T02:13:20;9.20;99.90
11963;DHT22;62678;52.130;5.584;2023-05-16T02:15:49;9.20;99.90
11963;DHT22;62678;52.130;5.584;2023-05-16T02:18:16;9.20;99.90
11963;DHT22;62678;52.130;5.584;2023-05-16T02:20:43;9.30;99.90
11963;DHT22;62678;52.130;5.584;2023-05-16T02:23:10;9.20;99.90
11963;DHT22;62678;52.130;5.584;2023-05-16T02:25:37;9.20;99.90
11963;DHT22;62678;52.130;5.584;2023-05-16T02:28:04;9.20;99.90
11963;DHT22;62678;52.130;5.584;2023-05-16T02:30:31;9.20;99.90
11963;DHT22;62678;52.130;5.584;2023-05-16T02:32:59;9.20;99.90
11963;DHT22;62678;52.130;5.584;2023-05-16T02:35:26;9.20;99.90
11963;DHT22;62678;52.130;5.584;2023-05-16T02:37:53;9.10;99.90
11963;DHT22;62678;52.130;5.584;2023-05-16T02:40:21;9.10;99.90
11963;DHT22;62678;52.130;5.584;2023-05-16T02:42:47;9.10;99.90
11963;DHT22;62678;52.130;5.584;2023-05-16T02:45:14;8.90;99.90
11963;DHT22;62678;52.130;5.584;2023-05-16T02:47:41;8.90;99.90
11963;DHT22;62678;52.130;5.584;2023-05-16T02:50:10;8.90;99.90
11963;DHT22;62678;52.130;5.584;2023-05-16T02:52:36;8.80;99.90
11963;DHT22;62678;52.130;5.584;2023-05-16T02:55:04;8.90;99.90
11963;DHT22;62678;52.130;5.584;2023-05-16T02:57:32;8.90;99.90
11963;DHT22;62678;52.130;5.584;2023-05-16T02:59:59;8.90;99.90
11963;DHT22;62678;52.130;5.584;2023-05-16T03:02:25;8.80;99.90
11963;DHT22;62678;52.130;5.584;2023-05-16T03:04:52;8.80;99.90
11963;DHT22;62678;52.130;5.584;2023-05-16T03:07:20;8.80;99.90
11963;DHT22;62678;52.130;5.584;2023-05-16T03:09:47;8.90;99.90
11963;DHT22;62678;52.130;5.584;2023-05-16T03:12:14;8.80;99.90
11963;DHT22;62678;52.130;5.584;2023-05-16T03:14:41;8.70;99.90
11963;DHT22;62678;52.130;5.584;2023-05-16T03:17:08;8.70;99.90
11963;DHT22;62678;52.130;5.584;2023-05-16T03:19:34;8.70;99.90
11963;DHT22;62678;52.130;5.584;2023-05-16T03:22:01;8.70;99.90
11963;DHT22;62678;52.130;5.584;2023-05-16T03:24:30;8.80;99.90
11963;DHT22;62678;52.130;5.584;2023-05-16T03:26:56;8.70;99.90
11963;DHT22;62678;52.130;5.584;2023-05-16T03:29:24;8.60;99.90
11963;DHT22;62678;52.130;5.584;2023-05-16T03:31:54;8.50;99.90
11963;DHT22;62678;52.130;5.584;2023-05-16T03:34:20;8.50;99.90
11963;DHT22;62678;52.130;5.584;2023-05-16T03:36:48;8.40;99.90
11963;DHT22;62678;52.130;5.584;2023-05-16T03:39:15;8.40;99.90
11963;DHT22;62678;52.130;5.584;2023-05-16T03:41:43;8.30;99.90
11963;DHT22;62678;52.130;5.584;2023-05-16T03:44:12;8.40;99.90
11963;DHT22;62678;52.130;5.584;2023-05-16T03:46:39;8.40;99.90
11963;DHT22;62678;52.130;5.584;2023-05-16T03:49:06;8.30;99.90
11963;DHT22;62678;52.130;5.584;2023-05-16T03:51:32;8.40;99.90
11963;DHT22;62678;52.130;5.584;2023-05-16T03:53:59;8.30;99.90
11963;DHT22;62678;52.130;5.584;2023-05-16T03:56:26;8.30;99.90
11963;DHT22;62678;52.130;5.584;2023-05-16T03:58:54;8.40;99.90
11963;DHT22;62678;52.130;5.584;2023-05-16T04:01:21;8.40;99.90
11963;DHT22;62678;52.130;5.584;2023-05-16T04:03:48;8.30;99.90
11963;DHT22;62678;52.130;5.584;2023-05-16T04:06:15;8.30;99.90
11963;DHT22;62678;52.130;5.584;2023-05-16T04:08:42;8.30;99.90
11963;DHT22;62678;52.130;5.584;2023-05-16T04:11:09;8.20;99.90
11963;DHT22;62678;52.130;5.584;2023-05-16T04:13:36;8.10;99.90
11963;DHT22;62678;52.130;5.584;2023-05-16T04:16:05;8.20;99.90
11963;DHT22;62678;52.130;5.584;2023-05-16T04:18:32;8.20;99.90
11963;DHT22;62678;52.130;5.584;2023-05-16T04:20:59;8.20;99.90
11963;DHT22;62678;52.130;5.584;2023-05-16T04:23:27;8.20;99.90
11963;DHT22;62678;52.130;5.584;2023-05-16T04:25:54;8.20;99.90
11963;DHT22;62678;52.130;5.584;2023-05-16T04:28:21;8.10;99.90
11963;DHT22;62678;52.130;5.584;2023-05-16T04:30:48;8.10;99.90
11963;DHT22;62678;52.130;5.584;2023-05-16T04:33:17;8.20;99.90
11963;DHT22;62678;52.130;5.584;2023-05-16T04:35:44;8.20;99.90
11963;DHT22;62678;52.130;5.584;2023-05-16T04:38:11;8.20;99.90
11963;DHT22;62678;52.130;5.584;2023-05-16T04:40:38;8.20;99.90
11963;DHT22;62678;52.130;5.584;2023-05-16T04:43:06;8.20;99.90
11963;DHT22;62678;52.130;5.584;2023-05-16T04:45:33;8.30;99.90
11963;DHT22;62678;52.130;5.584;2023-05-16T04:48:00;8.30;99.90
11963;DHT22;62678;52.130;5.584;2023-05-16T04:50:28;8.30;99.90
11963;DHT22;62678;52.130;5.584;2023-05-16T04:52:55;8.30;99.90
11963;DHT22;62678;52.130;5.584;2023-05-16T04:55:22;8.40;99.90
11963;DHT22;62678;52.130;5.584;2023-05-16T04:57:49;8.50;99.90
11963;DHT22;62678;52.130;5.584;2023-05-16T05:00:16;8.60;99.90
11963;DHT22;62678;52.130;5.584;2023-05-16T05:02:43;8.70;99.90
11963;DHT22;62678;52.130;5.584;2023-05-16T05:05:10;8.80;99.90
11963;DHT22;62678;52.130;5.584;2023-05-16T05:07:38;8.70;99.90
11963;DHT22;62678;52.130;5.584;2023-05-16T05:10:06;8.70;99.90
11963;DHT22;62678;52.130;5.584;2023-05-16T05:12:34;8.70;99.90
11963;DHT22;62678;52.130;5.584;2023-05-16T05:15:01;8.80;99.90
11963;DHT22;62678;52.130;5.584;2023-05-16T05:17:28;8.80;99.90
11963;DHT22;62678;52.130;5.584;2023-05-16T05:19:55;8.90;99.90
11963;DHT22;62678;52.130;5.584;2023-05-16T05:22:22;8.90;99.90
11963;DHT22;62678;52.130;5.584;2023-05-16T05:24:50;9.10;99.90
11963;DHT22;62678;52.130;5.584;2023-05-16T05:27:17;9.10;99.90
11963;DHT22;62678;52.130;5.584;2023-05-16T05:29:44;9.20;99.90
11963;DHT22;62678;52.130;5.584;2023-05-16T05:32:10;9.40;99.90
11963;DHT22;62678;52.130;5.584;2023-05-16T05:34:38;9.40;99.90
11963;DHT22;62678;52.130;5.584;2023-05-16T05:37:05;9.40;99.90
11963;DHT22;62678;52.130;5.584;2023-05-16T05:39:31;9.50;99.90
11963;DHT22;62678;52.130;5.584;2023-05-16T05:42:00;9.60;99.90
11963;DHT22;62678;52.130;5.584;2023-05-16T05:44:29;9.90;99.90
11963;DHT22;62678;52.130;5.584;2023-05-16T05:46:56;10.00;99.90
11963;DHT22;62678;52.130;5.584;2023-05-16T05:49:23;10.10;99.90
11963;DHT22;62678;52.130;5.584;2023-05-16T05:51:50;10.10;99.90
11963;DHT22;62678;52.130;5.584;2023-05-16T05:54:17;10.10;99.90
11963;DHT22;62678;52.130;5.584;2023-05-16T05:56:44;10.10;99.90
11963;DHT22;62678;52.130;5.584;2023-05-16T05:59:12;10.20;99.90
11963;DHT22;62678;52.130;5.584;2023-05-16T06:01:40;10.40;99.90
11963;DHT22;62678;52.130;5.584;2023-05-16T06:04:08;10.30;99.90
11963;DHT22;62678;52.130;5.584;2023-05-16T06:06:36;10.50;99.90
11963;DHT22;62678;52.130;5.584;2023-05-16T06:09:02;10.50;99.90
11963;DHT22;62678;52.130;5.584;2023-05-16T06:11:29;10.50;99.90
11963;DHT22;62678;52.130;5.584;2023-05-16T06:13:56;10.60;99.90
11963;DHT22;62678;52.130;5.584;2023-05-16T06:16:25;10.50;99.90
11963;DHT22;62678;52.130;5.584;2023-05-16T06:18:52;10.60;99.90
11963;DHT22;62678;52.130;5.584;2023-05-16T06:21:18;10.60;99.90
11963;DHT22;62678;52.130;5.584;2023-05-16T06:23:45;10.60;99.90
11963;DHT22;62678;52.130;5.584;2023-05-16T06:26:12;10.60;99.90
11963;DHT22;62678;52.130;5.584;2023-05-16T06:28:39;10.70;99.90
11963;DHT22;62678;52.130;5.584;2023-05-16T06:31:06;10.80;99.90
11963;DHT22;62678;52.130;5.584;2023-05-16T06:33:34;10.80;99.90
11963;DHT22;62678;52.130;5.584;2023-05-16T06:36:01;10.70;99.90
11963;DHT22;62678;52.130;5.584;2023-05-16T06:38:27;10.80;99.90
11963;DHT22;62678;52.130;5.584;2023-05-16T06:40:54;10.90;99.90
11963;DHT22;62678;52.130;5.584;2023-05-16T06:43:21;10.90;99.90
11963;DHT22;62678;52.130;5.584;2023-05-16T06:45:48;11.00;99.90
11963;DHT22;62678;52.130;5.584;2023-05-16T06:48:17;11.10;99.90
11963;DHT22;62678;52.130;5.584;2023-05-16T06:50:47;11.10;99.90
11963;DHT22;62678;52.130;5.584;2023-05-16T06:53:15;11.10;99.90
11963;DHT22;62678;52.130;5.584;2023-05-16T06:55:42;11.30;99.90
11963;DHT22;62678;52.130;5.584;2023-05-16T06:58:09;11.60;99.90
11963;DHT22;62678;52.130;5.584;2023-05-16T07:00:36;11.60;99.90
11963;DHT22;62678;52.130;5.584;2023-05-16T07:03:03;11.60;99.90
11963;DHT22;62678;52.130;5.584;2023-05-16T07:05:30;11.70;99.90
11963;DHT22;62678;52.130;5.584;2023-05-16T07:07:58;11.60;99.90
11963;DHT22;62678;52.130;5.584;2023-05-16T07:10:25;11.50;99.90
11963;DHT22;62678;52.130;5.584;2023-05-16T07:12:52;11.60;99.90
11963;DHT22;62678;52.130;5.584;2023-05-16T07:15:20;11.50;99.90
11963;DHT22;62678;52.130;5.584;2023-05-16T07:17:46;11.40;99.90
11963;DHT22;62678;52.130;5.584;2023-05-16T07:20:15;11.50;99.90
11963;DHT22;62678;52.130;5.584;2023-05-16T07:22:42;11.70;99.90
11963;DHT22;62678;52.130;5.584;2023-05-16T07:25:10;11.90;99.90
11963;DHT22;62678;52.130;5.584;2023-05-16T07:27:39;12.20;99.90
11963;DHT22;62678;52.130;5.584;2023-05-16T07:30:10;12.30;99.90
11963;DHT22;62678;52.130;5.584;2023-05-16T07:32:37;12.40;99.90
11963;DHT22;62678;52.130;5.584;2023-05-16T07:35:04;12.30;99.90
11963;DHT22;62678;52.130;5.584;2023-05-16T07:37:31;12.10;99.90
11963;DHT22;62678;52.130;5.584;2023-05-16T07:39:58;12.00;99.90
11963;DHT22;62678;52.130;5.584;2023-05-16T07:42:26;11.90;99.90
11963;DHT22;62678;52.130;5.584;2023-05-16T07:44:53;12.10;99.90
11963;DHT22;62678;52.130;5.584;2023-05-16T07:47:21;12.40;99.90
11963;DHT22;62678;52.130;5.584;2023-05-16T07:49:48;12.70;99.90
11963;DHT22;62678;52.130;5.584;2023-05-16T07:52:15;12.90;99.90
11963;DHT22;62678;52.130;5.584;2023-05-16T07:54:42;12.80;99.90
11963;DHT22;62678;52.130;5.584;2023-05-16T07:57:09;12.70;99.90
11963;DHT22;62678;52.130;5.584;2023-05-16T07:59:37;12.50;99.90
11963;DHT22;62678;52.130;5.584;2023-05-16T08:02:04;11.30;99.90
11963;DHT22;62678;52.130;5.584;2023-05-16T08:04:31;10.50;99.90
11963;DHT22;62678;52.130;5.584;2023-05-16T08:06:58;10.30;99.90
11963;DHT22;62678;52.130;5.584;2023-05-16T08:09:24;10.20;99.90
11963;DHT22;62678;52.130;5.584;2023-05-16T08:11:52;10.30;99.90
11963;DHT22;62678;52.130;5.584;2023-05-16T08:14:19;10.20;99.90
11963;DHT22;62678;52.130;5.584;2023-05-16T08:16:47;10.40;99.90
11963;DHT22;62678;52.130;5.584;2023-05-16T08:19:13;10.50;99.90
11963;DHT22;62678;52.130;5.584;2023-05-16T08:21:40;10.70;99.90
11963;DHT22;62678;52.130;5.584;2023-05-16T08:24:07;11.00;99.90
11963;DHT22;62678;52.130;5.584;2023-05-16T08:26:35;11.00;99.90
11963;DHT22;62678;52.130;5.584;2023-05-16T08:29:02;11.10;99.90
11963;DHT22;62678;52.130;5.584;2023-05-16T08:31:29;11.30;99.90
11963;DHT22;62678;52.130;5.584;2023-05-16T08:33:58;11.30;99.90
11963;DHT22;62678;52.130;5.584;2023-05-16T08:36:26;11.50;99.90
11963;DHT22;62678;52.130;5.584;2023-05-16T08:38:53;11.50;99.90
11963;DHT22;62678;52.130;5.584;2023-05-16T08:41:20;11.70;99.90
11963;DHT22;62678;52.130;5.584;2023-05-16T08:43:47;11.80;99.90
11963;DHT22;62678;52.130;5.584;2023-05-16T08:46:15;11.90;99.90
11963;DHT22;62678;52.130;5.584;2023-05-16T08:48:45;12.10;99.90
11963;DHT22;62678;52.130;5.584;2023-05-16T08:51:16;12.30;99.90
11963;DHT22;62678;52.130;5.584;2023-05-16T08:53:49;12.50;99.90
11963;DHT22;62678;52.130;5.584;2023-05-16T08:56:16;12.60;99.90
11963;DHT22;62678;52.130;5.584;2023-05-16T08:58:44;12.80;99.90
11963;DHT22;62678;52.130;5.584;2023-05-16T09:01:12;12.80;99.90
11963;DHT22;62678;52.130;5.584;2023-05-16T09:03:39;12.60;99.90
11963;DHT22;62678;52.130;5.584;2023-05-16T09:06:06;12.60;99.90
11963;DHT22;62678;52.130;5.584;2023-05-16T09:08:34;12.80;99.90
11963;DHT22;62678;52.130;5.584;2023-05-16T09:11:01;12.80;99.90
11963;DHT22;62678;52.130;5.584;2023-05-16T09:13:29;13.00;99.90
11963;DHT22;62678;52.130;5.584;2023-05-16T09:16:10;13.30;99.90
11963;DHT22;62678;52.130;5.584;2023-05-16T09:18:37;13.50;99.90
11963;DHT22;62678;52.130;5.584;2023-05-16T09:21:04;13.50;99.90
11963;DHT22;62678;52.130;5.584;2023-05-16T09:23:32;13.70;99.90
11963;DHT22;62678;52.130;5.584;2023-05-16T09:26:01;13.90;99.90
11963;DHT22;62678;52.130;5.584;2023-05-16T09:28:29;13.80;99.90
11963;DHT22;62678;52.130;5.584;2023-05-16T09:30:56;13.80;99.90
11963;DHT22;62678;52.130;5.584;2023-05-16T09:33:26;13.60;99.90
11963;DHT22;62678;52.130;5.584;2023-05-16T09:35:55;13.40;99.90
11963;DHT22;62678;52.130;5.584;2023-05-16T09:38:22;13.30;99.90
11963;DHT22;62678;52.130;5.584;2023-05-16T09:40:49;13.10;99.90
11963;DHT22;62678;52.130;5.584;2023-05-16T09:43:21;12.90;99.90
11963;DHT22;62678;52.130;5.584;2023-05-16T09:45:49;13.10;99.90
11963;DHT22;62678;52.130;5.584;2023-05-16T09:48:16;13.40;99.90
11963;DHT22;62678;52.130;5.584;2023-05-16T09:50:47;13.70;99.90
11963;DHT22;62678;52.130;5.584;2023-05-16T09:53:15;13.90;99.90
11963;DHT22;62678;52.130;5.584;2023-05-16T09:55:42;14.00;99.90
11963;DHT22;62678;52.130;5.584;2023-05-16T09:58:09;14.20;99.90
11963;DHT22;62678;52.130;5.584;2023-05-16T10:00:38;14.10;99.90
11963;DHT22;62678;52.130;5.584;2023-05-16T10:03:07;13.70;99.90
11963;DHT22;62678;52.130;5.584;2023-05-16T10:05:34;13.60;99.90
11963;DHT22;62678;52.130;5.584;2023-05-16T10:08:03;14.00;99.90
11963;DHT22;62678;52.130;5.584;2023-05-16T10:10:32;14.00;99.90
11963;DHT22;62678;52.130;5.584;2023-05-16T10:13:01;14.30;99.90
11963;DHT22;62678;52.130;5.584;2023-05-16T10:15:29;14.50;99.90
11963;DHT22;62678;52.130;5.584;2023-05-16T10:17:57;14.90;99.90
11963;DHT22;62678;52.130;5.584;2023-05-16T10:20:26;15.00;99.90
11963;DHT22;62678;52.130;5.584;2023-05-16T10:22:55;14.80;99.90
11963;DHT22;62678;52.130;5.584;2023-05-16T10:25:27;14.60;99.90
11963;DHT22;62678;52.130;5.584;2023-05-16T10:27:55;14.70;99.90
11963;DHT22;62678;52.130;5.584;2023-05-16T10:30:22;15.00;99.90
11963;DHT22;62678;52.130;5.584;2023-05-16T10:32:50;14.80;99.90
11963;DHT22;62678;52.130;5.584;2023-05-16T10:35:19;14.60;99.90
11963;DHT22;62678;52.130;5.584;2023-05-16T10:37:47;14.80;99.90
11963;DHT22;62678;52.130;5.584;2023-05-16T10:40:15;14.60;99.90
11963;DHT22;62678;52.130;5.584;2023-05-16T10:42:43;14.40;99.90
11963;DHT22;62678;52.130;5.584;2023-05-16T10:45:20;14.20;99.90
11963;DHT22;62678;52.130;5.584;2023-05-16T10:47:52;14.30;99.90
11963;DHT22;62678;52.130;5.584;2023-05-16T10:50:37;14.40;99.90
11963;DHT22;62678;52.130;5.584;2023-05-16T10:53:15;14.60;99.90
11963;DHT22;62678;52.130;5.584;2023-05-16T10:55:48;14.60;99.90
11963;DHT22;62678;52.130;5.584;2023-05-16T10:58:21;14.70;99.90
11963;DHT22;62678;52.130;5.584;2023-05-16T11:00:48;15.10;99.90
11963;DHT22;62678;52.130;5.584;2023-05-16T11:03:21;15.20;99.90
11963;DHT22;62678;52.130;5.584;2023-05-16T11:05:52;15.40;99.90
11963;DHT22;62678;52.130;5.584;2023-05-16T11:08:20;15.30;99.90
11963;DHT22;62678;52.130;5.584;2023-05-16T11:10:46;14.90;99.90
11963;DHT22;62678;52.130;5.584;2023-05-16T11:13:13;14.90;99.90
11963;DHT22;62678;52.130;5.584;2023-05-16T11:15:44;15.20;99.90
11963;DHT22;62678;52.130;5.584;2023-05-16T11:18:14;15.10;99.90
11963;DHT22;62678;52.130;5.584;2023-05-16T11:20:41;14.90;99.90
11963;DHT22;62678;52.130;5.584;2023-05-16T11:23:23;15.20;99.90
11963;DHT22;62678;52.130;5.584;2023-05-16T11:25:55;15.20;99.90
11963;DHT22;62678;52.130;5.584;2023-05-16T11:28:23;15.20;99.90
11963;DHT22;62678;52.130;5.584;2023-05-16T11:30:53;14.90;99.90
11963;DHT22;62678;52.130;5.584;2023-05-16T11:33:22;14.70;99.90
11963;DHT22;62678;52.130;5.584;2023-05-16T11:36:02;14.50;99.90
11963;DHT22;62678;52.130;5.584;2023-05-16T11:38:32;14.30;99.90
11963;DHT22;62678;52.130;5.584;2023-05-16T11:41:03;14.20;99.90
11963;DHT22;62678;52.130;5.584;2023-05-16T11:43:36;14.10;99.90
11963;DHT22;62678;52.130;5.584;2023-05-16T11:46:03;14.10;99.90
11963;DHT22;62678;52.130;5.584;2023-05-16T11:48:30;14.10;99.90
11963;DHT22;62678;52.130;5.584;2023-05-16T11:50:57;14.10;99.90
11963;DHT22;62678;52.130;5.584;2023-05-16T11:53:24;14.20;99.90
11963;DHT22;62678;52.130;5.584;2023-05-16T11:55:52;14.20;99.90
11963;DHT22;62678;52.130;5.584;2023-05-16T11:58:19;14.30;99.90
11963;DHT22;62678;52.130;5.584;2023-05-16T12:00:49;14.50;99.90
11963;DHT22;62678;52.130;5.584;2023-05-16T12:03:18;14.40;99.90
11963;DHT22;62678;52.130;5.584;2023-05-16T12:05:52;14.40;99.90
11963;DHT22;62678;52.130;5.584;2023-05-16T12:08:19;14.30;99.90
11963;DHT22;62678;52.130;5.584;2023-05-16T12:10:49;14.20;99.90
11963;DHT22;62678;52.130;5.584;2023-05-16T12:13:18;14.00;99.90
11963;DHT22;62678;52.130;5.584;2023-05-16T12:15:45;13.80;99.90
11963;DHT22;62678;52.130;5.584;2023-05-16T12:18:13;13.50;99.90
11963;DHT22;62678;52.130;5.584;2023-05-16T12:20:40;13.70;99.90
11963;DHT22;62678;52.130;5.584;2023-05-16T12:23:09;13.40;99.90
11963;DHT22;62678;52.130;5.584;2023-05-16T12:25:37;13.20;99.90
11963;DHT22;62678;52.130;5.584;2023-05-16T12:28:08;12.90;99.90
11963;DHT22;62678;52.130;5.584;2023-05-16T12:30:42;12.40;99.90
11963;DHT22;62678;52.130;5.584;2023-05-16T12:33:10;12.10;99.90
11963;DHT22;62678;52.130;5.584;2023-05-16T12:35:38;12.00;99.90
11963;DHT22;62678;52.130;5.584;2023-05-16T12:38:07;11.80;99.90
11963;DHT22;62678;52.130;5.584;2023-05-16T12:40:36;11.80;99.90
11963;DHT22;62678;52.130;5.584;2023-05-16T12:43:04;12.10;99.90
11963;DHT22;62678;52.130;5.584;2023-05-16T12:45:32;12.40;99.90
11963;DHT22;62678;52.130;5.584;2023-05-16T12:48:05;12.60;99.90
11963;DHT22;62678;52.130;5.584;2023-05-16T12:50:37;13.00;99.90
11963;DHT22;62678;52.130;5.584;2023-05-16T12:53:04;13.40;99.90
11963;DHT22;62678;52.130;5.584;2023-05-16T12:55:35;14.00;99.90
11963;DHT22;62678;52.130;5.584;2023-05-16T12:58:02;14.20;99.90
11963;DHT22;62678;52.130;5.584;2023-05-16T13:00:29;14.30;99.90
11963;DHT22;62678;52.130;5.584;2023-05-16T13:02:57;14.40;99.90
11963;DHT22;62678;52.130;5.584;2023-05-16T13:05:25;14.30;99.90
11963;DHT22;62678;52.130;5.584;2023-05-16T13:07:52;14.60;99.90
11963;DHT22;62678;52.130;5.584;2023-05-16T13:10:19;14.70;99.90
11963;DHT22;62678;52.130;5.584;2023-05-16T13:12:46;14.60;99.90
11963;DHT22;62678;52.130;5.584;2023-05-16T13:15:13;14.50;99.90
11963;DHT22;62678;52.130;5.584;2023-05-16T13:17:41;14.10;99.90
11963;DHT22;62678;52.130;5.584;2023-05-16T13:20:09;13.90;99.90
11963;DHT22;62678;52.130;5.584;2023-05-16T13:22:41;13.80;99.90
11963;DHT22;62678;52.130;5.584;2023-05-16T13:25:09;13.80;99.90
11963;DHT22;62678;52.130;5.584;2023-05-16T13:27:36;13.60;99.90
11963;DHT22;62678;52.130;5.584;2023-05-16T13:30:04;13.70;99.90
11963;DHT22;62678;52.130;5.584;2023-05-16T13:32:31;13.80;99.90
11963;DHT22;62678;52.130;5.584;2023-05-16T13:34:58;13.90;99.90
11963;DHT22;62678;52.130;5.584;2023-05-16T13:37:25;14.00;99.90
11963;DHT22;62678;52.130;5.584;2023-05-16T13:39:53;14.10;99.90
11963;DHT22;62678;52.130;5.584;2023-05-16T13:42:20;14.40;99.90
11963;DHT22;62678;52.130;5.584;2023-05-16T13:44:47;14.20;99.90
11963;DHT22;62678;52.130;5.584;2023-05-16T13:47:14;14.30;99.90
11963;DHT22;62678;52.130;5.584;2023-05-16T13:49:41;14.50;99.90
11963;DHT22;62678;52.130;5.584;2023-05-16T13:52:08;14.70;99.90
11963;DHT22;62678;52.130;5.584;2023-05-16T13:54:35;14.90;99.90
11963;DHT22;62678;52.130;5.584;2023-05-16T13:57:03;15.00;99.90
11963;DHT22;62678;52.130;5.584;2023-05-16T13:59:31;15.40;99.90
11963;DHT22;62678;52.130;5.584;2023-05-16T14:01:58;15.90;99.90
11963;DHT22;62678;52.130;5.584;2023-05-16T14:04:25;15.50;99.90
11963;DHT22;62678;52.130;5.584;2023-05-16T14:06:52;15.10;99.90
11963;DHT22;62678;52.130;5.584;2023-05-16T14:09:19;14.90;99.90
11963;DHT22;62678;52.130;5.584;2023-05-16T14:11:46;15.00;99.90
11963;DHT22;62678;52.130;5.584;2023-05-16T14:14:15;14.70;99.90
11963;DHT22;62678;52.130;5.584;2023-05-16T14:16:41;14.70;99.90
11963;DHT22;62678;52.130;5.584;2023-05-16T14:19:10;14.60;99.90
11963;DHT22;62678;52.130;5.584;2023-05-16T14:21:37;14.50;99.90
11963;DHT22;62678;52.130;5.584;2023-05-16T14:24:05;14.50;99.90
11963;DHT22;62678;52.130;5.584;2023-05-16T14:26:32;14.50;99.90
11963;DHT22;62678;52.130;5.584;2023-05-16T14:28:59;14.70;99.90
11963;DHT22;62678;52.130;5.584;2023-05-16T14:31:27;14.60;99.90
11963;DHT22;62678;52.130;5.584;2023-05-16T14:33:54;14.30;99.90
11963;DHT22;62678;52.130;5.584;2023-05-16T14:36:21;14.10;99.90
11963;DHT22;62678;52.130;5.584;2023-05-16T14:38:47;13.90;99.90
11963;DHT22;62678;52.130;5.584;2023-05-16T14:41:14;14.00;99.90
11963;DHT22;62678;52.130;5.584;2023-05-16T14:43:42;14.00;99.90
11963;DHT22;62678;52.130;5.584;2023-05-16T14:46:09;14.10;99.90
11963;DHT22;62678;52.130;5.584;2023-05-16T14:48:38;14.30;99.90
11963;DHT22;62678;52.130;5.584;2023-05-16T14:51:05;14.20;99.90
11963;DHT22;62678;52.130;5.584;2023-05-16T14:53:32;14.30;99.90
11963;DHT22;62678;52.130;5.584;2023-05-16T14:55:59;14.20;99.90
11963;DHT22;62678;52.130;5.584;2023-05-16T14:58:27;14.10;99.90
11963;DHT22;62678;52.130;5.584;2023-05-16T15:00:54;14.10;99.90
11963;DHT22;62678;52.130;5.584;2023-05-16T15:03:21;14.10;99.90
11963;DHT22;62678;52.130;5.584;2023-05-16T15:05:49;14.00;99.90
11963;DHT22;62678;52.130;5.584;2023-05-16T15:08:17;13.90;99.90
11963;DHT22;62678;52.130;5.584;2023-05-16T15:10:44;13.90;99.90
11963;DHT22;62678;52.130;5.584;2023-05-16T15:13:11;13.80;99.90
11963;DHT22;62678;52.130;5.584;2023-05-16T15:15:38;13.80;99.90
11963;DHT22;62678;52.130;5.584;2023-05-16T15:18:05;13.80;99.90
11963;DHT22;62678;52.130;5.584;2023-05-16T15:20:32;13.70;99.90
11963;DHT22;62678;52.130;5.584;2023-05-16T15:23:00;13.70;99.90
11963;DHT22;62678;52.130;5.584;2023-05-16T15:25:27;13.70;99.90
11963;DHT22;62678;52.130;5.584;2023-05-16T15:27:54;13.70;99.90
11963;DHT22;62678;52.130;5.584;2023-05-16T15:30:21;13.90;99.90
11963;DHT22;62678;52.130;5.584;2023-05-16T15:32:48;14.00;99.90
11963;DHT22;62678;52.130;5.584;2023-05-16T15:35:15;14.20;99.90
11963;DHT22;62678;52.130;5.584;2023-05-16T15:37:42;14.40;99.90
11963;DHT22;62678;52.130;5.584;2023-05-16T15:40:12;14.40;99.90
11963;DHT22;62678;52.130;5.584;2023-05-16T15:42:39;14.60;99.90